createdAt,value
2018-12-30T00:01:40.879Z,10.13
2018-12-30T00:04:09.992Z,11.13
2018-12-30T00:06:40.174Z,10.23
2018-12-30T00:09:09.340Z,10.00
2018-12-30T00:11:38.655Z,9.68
2018-12-30T00:14:07.592Z,9.10
2018-12-30T00:16:36.655Z,8.83
2018-12-30T00:19:05.543Z,9.15
2018-12-30T00:21:34.835Z,10.15
2018-12-30T00:24:03.776Z,9.30
2018-12-30T00:26:32.629Z,10.10
2018-12-30T00:29:01.784Z,10.40
2018-12-30T00:31:31.108Z,10.03
2018-12-30T00:34:00.393Z,12.37
2018-12-30T00:36:29.304Z,11.10
2018-12-30T00:38:58.325Z,10.38
2018-12-30T00:41:28.428Z,10.90
2018-12-30T00:43:57.559Z,11.55
2018-12-30T00:46:26.704Z,10.53
2018-12-30T00:48:55.840Z,10.37
2018-12-30T00:51:24.739Z,11.18
2018-12-30T00:53:53.570Z,11.23
2018-12-30T00:56:22.590Z,12.18
2018-12-30T00:58:51.484Z,12.60
2018-12-30T01:01:20.421Z,12.53
2018-12-30T01:03:49.365Z,12.33
2018-12-30T01:06:18.579Z,12.40
2018-12-30T01:08:47.827Z,11.60
2018-12-30T01:11:16.692Z,11.43
2018-12-30T01:13:46.051Z,12.97
2018-12-30T01:16:15.300Z,11.60
2018-12-30T01:18:44.199Z,11.10
2018-12-30T01:21:13.066Z,11.57
2018-12-30T01:23:41.892Z,11.83
2018-12-30T01:26:11.227Z,11.60
2018-12-30T01:28:40.569Z,10.70
2018-12-30T01:31:09.411Z,10.73
2018-12-30T01:33:38.704Z,10.73
2018-12-30T01:36:08.044Z,10.30
2018-12-30T01:38:36.884Z,10.00
2018-12-30T01:41:05.800Z,10.07
2018-12-30T01:43:34.702Z,9.90
2018-12-30T01:46:03.638Z,9.90
2018-12-30T01:48:32.809Z,10.90
2018-12-30T01:51:01.748Z,10.00
2018-12-30T01:53:30.999Z,10.43
2018-12-30T01:56:00.265Z,11.27
2018-12-30T01:58:29.191Z,10.45
2018-12-30T02:00:58.077Z,10.18
2018-12-30T02:03:27.018Z,9.15
2018-12-30T02:05:59.384Z,9.53
2018-12-30T02:08:28.267Z,8.25
2018-12-30T02:10:57.509Z,8.80
2018-12-30T02:13:26.383Z,8.40
2018-12-30T02:15:56.760Z,7.25
2018-12-30T02:18:25.613Z,9.85
2018-12-30T02:20:54.684Z,9.68
2018-12-30T02:23:23.804Z,10.30
2018-12-30T02:25:53.011Z,10.10
2018-12-30T02:28:21.995Z,8.90
2018-12-30T02:30:50.890Z,8.50
2018-12-30T02:33:19.973Z,9.40
2018-12-30T02:35:48.874Z,8.88
2018-12-30T02:38:18.488Z,9.13
2018-12-30T02:40:47.553Z,8.85
2018-12-30T02:43:16.768Z,8.33
2018-12-30T02:45:45.870Z,8.13
2018-12-30T02:48:14.744Z,7.90
2018-12-30T02:50:43.983Z,8.77
2018-12-30T02:53:12.869Z,8.10
2018-12-30T02:55:41.710Z,7.83
2018-12-30T02:58:10.757Z,7.93
2018-12-30T03:00:39.626Z,7.90
2018-12-30T03:03:08.974Z,7.55
2018-12-30T03:05:37.682Z,7.10
2018-12-30T03:08:06.611Z,9.05
2018-12-30T03:10:35.407Z,8.20
2018-12-30T03:13:04.335Z,7.10
2018-12-30T03:15:33.096Z,7.27
2018-12-30T03:18:02.060Z,6.90
2018-12-30T03:20:35.054Z,7.10
2018-12-30T03:23:03.889Z,7.60
2018-12-30T03:25:33.061Z,7.20
2018-12-30T03:28:02.927Z,6.87
2018-12-30T03:30:31.978Z,7.00
2018-12-30T03:33:01.245Z,6.70
2018-12-30T03:35:30.188Z,6.80
2018-12-30T03:37:59.339Z,5.60
2018-12-30T03:40:28.219Z,6.10
2018-12-30T03:42:57.255Z,7.03
2018-12-30T03:45:26.132Z,5.97
2018-12-30T03:47:55.189Z,5.70
2018-12-30T03:50:23.996Z,6.10
2018-12-30T03:52:52.915Z,5.93
2018-12-30T03:55:22.085Z,6.17
2018-12-30T03:57:51.411Z,6.40
2018-12-30T04:00:20.340Z,6.37
2018-12-30T04:02:49.577Z,5.70
2018-12-30T04:05:18.487Z,5.90
2018-12-30T04:07:47.381Z,5.20
2018-12-30T04:10:16.217Z,5.67
2018-12-30T04:12:45.092Z,5.40
2018-12-30T04:15:14.308Z,5.53
2018-12-30T04:17:43.226Z,5.90
2018-12-30T04:20:12.492Z,5.37
2018-12-30T04:22:41.386Z,4.90
2018-12-30T04:25:10.339Z,5.03
2018-12-30T04:27:39.256Z,4.97
2018-12-30T04:30:08.103Z,5.00
2018-12-30T04:32:37.049Z,5.10
2018-12-30T04:35:06.132Z,4.63
2018-12-30T04:37:35.492Z,4.83
2018-12-30T04:40:05.154Z,5.17
2018-12-30T04:42:34.182Z,4.50
2018-12-30T04:45:03.014Z,4.20
2018-12-30T04:47:31.751Z,4.67
2018-12-30T04:50:00.574Z,5.63
2018-12-30T04:52:29.485Z,5.80
2018-12-30T04:54:58.334Z,5.60
2018-12-30T04:57:27.150Z,5.07
2018-12-30T04:59:56.426Z,5.67
2018-12-30T05:02:25.343Z,4.80
2018-12-30T05:04:54.236Z,5.40
2018-12-30T05:07:23.177Z,4.77
2018-12-30T05:09:52.368Z,5.00
2018-12-30T05:12:21.209Z,4.70
2018-12-30T05:14:50.228Z,4.73
2018-12-30T05:17:19.091Z,5.40
2018-12-30T05:19:48.040Z,4.80
2018-12-30T05:22:16.755Z,5.33
2018-12-30T05:24:45.682Z,4.80
2018-12-30T05:27:14.498Z,5.80
2018-12-30T05:29:43.343Z,5.30
2018-12-30T05:32:12.439Z,5.63
2018-12-30T05:34:41.588Z,5.10
2018-12-30T05:37:10.775Z,5.07
2018-12-30T05:39:39.743Z,4.40
2018-12-30T05:42:08.808Z,5.20
2018-12-30T05:44:37.626Z,5.53
2018-12-30T05:47:08.153Z,5.03
2018-12-30T05:49:36.911Z,4.60
2018-12-30T05:52:05.751Z,4.80
2018-12-30T05:54:34.802Z,4.90
2018-12-30T05:57:03.746Z,5.00
2018-12-30T05:59:32.831Z,4.63
2018-12-30T06:02:01.933Z,5.00
2018-12-30T06:04:30.709Z,5.10
2018-12-30T06:06:59.633Z,5.60
2018-12-30T06:09:28.487Z,4.63
2018-12-30T06:11:57.250Z,5.30
2018-12-30T06:14:26.163Z,5.20
2018-12-30T06:16:54.905Z,5.80
2018-12-30T06:19:23.802Z,5.93
2018-12-30T06:21:53.348Z,6.00
2018-12-30T06:24:22.504Z,5.57
2018-12-30T06:26:51.349Z,7.87
2018-12-30T06:29:20.203Z,7.10
2018-12-30T06:31:49.294Z,5.70
2018-12-30T06:34:18.553Z,6.27
2018-12-30T06:36:47.680Z,6.53
2018-12-30T06:39:16.793Z,5.90
2018-12-30T06:41:45.711Z,5.90
2018-12-30T06:44:14.569Z,6.10
2018-12-30T06:46:43.394Z,5.80
2018-12-30T06:49:12.359Z,5.67
2018-12-30T06:51:41.114Z,5.93
2018-12-30T06:54:09.964Z,6.40
2018-12-30T06:56:39.083Z,7.30
2018-12-30T06:59:08.451Z,6.73
2018-12-30T07:01:37.336Z,7.07
2018-12-30T07:04:06.624Z,6.50
2018-12-30T07:06:35.391Z,7.10
2018-12-30T07:09:05.164Z,6.03
2018-12-30T07:11:33.939Z,6.20
2018-12-30T07:14:02.839Z,6.10
2018-12-30T07:16:31.943Z,4.90
2018-12-30T07:19:00.703Z,5.67
2018-12-30T07:21:29.782Z,6.30
2018-12-30T07:23:58.594Z,6.40
2018-12-30T07:26:27.732Z,6.23
2018-12-30T07:28:57.048Z,6.40
2018-12-30T07:31:25.888Z,9.33
2018-12-30T07:33:54.810Z,7.00
2018-12-30T07:36:24.155Z,6.90
2018-12-30T07:38:54.182Z,7.43
2018-12-30T07:41:23.124Z,7.37
2018-12-30T07:43:52.124Z,7.70
2018-12-30T07:46:21.356Z,7.70
2018-12-30T07:48:50.428Z,7.63
2018-12-30T07:51:19.311Z,8.53
2018-12-30T07:53:48.224Z,9.40
2018-12-30T07:56:17.363Z,8.73
2018-12-30T07:58:46.296Z,8.30
2018-12-30T08:01:15.138Z,7.87
2018-12-30T08:03:44.386Z,7.53
2018-12-30T08:06:13.619Z,6.90
2018-12-30T08:08:42.814Z,7.57
2018-12-30T08:11:12.079Z,7.30
2018-12-30T08:13:40.884Z,7.10
2018-12-30T08:16:09.706Z,7.60
2018-12-30T08:18:38.852Z,7.20
2018-12-30T08:21:08.020Z,7.80
2018-12-30T08:23:36.872Z,7.47
2018-12-30T08:26:05.879Z,8.10
2018-12-30T08:28:35.131Z,9.27
2018-12-30T08:31:03.924Z,7.63
2018-12-30T08:33:32.657Z,9.30
2018-12-30T08:36:01.575Z,9.47
2018-12-30T08:38:30.509Z,9.10
2018-12-30T08:40:59.540Z,9.20
2018-12-30T08:43:28.981Z,10.77
2018-12-30T08:45:57.986Z,9.60
2018-12-30T08:48:28.340Z,10.90
2018-12-30T08:50:57.201Z,11.53
2018-12-30T08:53:29.428Z,11.53
2018-12-30T08:55:57.828Z,11.53
2018-12-30T08:58:27.052Z,11.10
2018-12-30T09:00:57.248Z,11.33
2018-12-30T09:03:26.171Z,11.17
2018-12-30T09:05:55.253Z,11.43
2018-12-30T09:08:24.195Z,11.07
2018-12-30T09:10:53.275Z,12.70
2018-12-30T09:13:22.171Z,12.90
2018-12-30T09:15:51.055Z,12.33
2018-12-30T09:18:20.324Z,11.90
2018-12-30T09:20:49.503Z,12.40
2018-12-30T09:23:19.316Z,13.30
2018-12-30T09:25:48.718Z,12.00
2018-12-30T09:28:17.923Z,12.50
2018-12-30T09:30:47.236Z,13.10
2018-12-30T09:33:16.179Z,12.20
2018-12-30T09:35:45.064Z,13.03
2018-12-30T09:38:13.988Z,13.20
2018-12-30T09:40:42.984Z,12.90
2018-12-30T09:43:11.780Z,15.50
2018-12-30T09:45:40.589Z,13.23
2018-12-30T09:48:09.568Z,12.93
2018-12-30T09:50:38.743Z,14.20
2018-12-30T09:53:07.650Z,13.87
2018-12-30T09:55:36.536Z,13.40
2018-12-30T09:58:05.290Z,13.53
2018-12-30T10:00:34.589Z,13.27
2018-12-30T10:03:03.619Z,13.47
2018-12-30T10:05:32.391Z,13.83
2018-12-30T10:08:01.300Z,14.00
2018-12-30T10:10:30.282Z,14.37
2018-12-30T10:12:59.764Z,15.60
2018-12-30T10:15:28.692Z,13.90
2018-12-30T10:17:57.513Z,14.70
2018-12-30T10:20:26.443Z,14.07
2018-12-30T10:22:58.904Z,15.77
2018-12-30T10:25:27.166Z,14.47
2018-12-30T10:27:56.025Z,14.43
2018-12-30T10:30:26.613Z,14.90
2018-12-30T10:32:55.314Z,14.63
2018-12-30T10:35:24.118Z,15.20
2018-12-30T10:37:52.931Z,14.70
2018-12-30T10:40:21.842Z,15.40
2018-12-30T10:42:50.995Z,15.20
2018-12-30T10:45:19.773Z,14.97
2018-12-30T10:47:48.844Z,15.00
2018-12-30T10:50:17.856Z,14.87
2018-12-30T10:52:47.076Z,16.30
2018-12-30T10:55:16.083Z,23.57
2018-12-30T10:57:44.913Z,16.73
2018-12-30T11:00:13.963Z,14.97
2018-12-30T11:02:42.905Z,15.23
2018-12-30T11:05:11.757Z,15.23
2018-12-30T11:07:40.868Z,15.70
2018-12-30T11:10:09.778Z,16.73
2018-12-30T11:12:38.620Z,16.57
2018-12-30T11:15:09.038Z,15.00
2018-12-30T11:17:38.269Z,15.77
2018-12-30T11:20:07.625Z,15.47
2018-12-30T11:22:36.448Z,16.50
2018-12-30T11:25:05.942Z,15.63
2018-12-30T11:27:35.140Z,15.20
2018-12-30T11:30:04.344Z,16.10
2018-12-30T11:32:33.130Z,15.17
2018-12-30T11:35:01.986Z,17.23
2018-12-30T11:37:32.207Z,16.07
2018-12-30T11:40:01.394Z,15.60
2018-12-30T11:42:30.344Z,16.10
2018-12-30T11:44:59.091Z,15.90
2018-12-30T11:47:27.933Z,15.40
2018-12-30T11:49:56.989Z,15.63
2018-12-30T11:52:25.987Z,16.53
2018-12-30T11:54:55.139Z,16.00
2018-12-30T11:57:24.344Z,15.50
2018-12-30T11:59:53.521Z,15.43
2018-12-30T12:02:24.210Z,14.67
2018-12-30T12:04:52.808Z,15.50
2018-12-30T12:07:21.797Z,15.37
2018-12-30T12:09:50.671Z,16.20
2018-12-30T12:12:19.921Z,15.13
2018-12-30T12:14:49.054Z,15.80
2018-12-30T12:17:17.857Z,15.80
2018-12-30T12:19:46.760Z,14.90
2018-12-30T12:22:15.579Z,14.37
2018-12-30T12:24:44.356Z,14.23
2018-12-30T12:27:13.209Z,15.10
2018-12-30T12:29:42.134Z,14.53
2018-12-30T12:32:11.026Z,14.43
2018-12-30T12:34:40.335Z,14.20
2018-12-30T12:37:09.135Z,13.73
2018-12-30T12:39:38.012Z,13.40
2018-12-30T12:42:06.774Z,15.07
2018-12-30T12:44:36.297Z,13.77
2018-12-30T12:47:05.468Z,14.30
2018-12-30T12:49:34.283Z,14.07
2018-12-30T12:52:03.213Z,14.13
2018-12-30T12:54:32.518Z,14.50
2018-12-30T12:57:01.648Z,14.83
2018-12-30T12:59:30.551Z,14.90
2018-12-30T13:01:59.671Z,15.63
2018-12-30T13:04:28.918Z,15.37
2018-12-30T13:06:59.595Z,14.10
2018-12-30T13:09:33.778Z,14.73
2018-12-30T13:12:02.794Z,13.97
2018-12-30T13:14:31.824Z,14.97
2018-12-30T13:17:00.771Z,14.00
2018-12-30T13:19:29.565Z,14.30
2018-12-30T13:22:01.931Z,13.70
2018-12-30T13:24:30.722Z,14.50
2018-12-30T13:26:59.727Z,30.03
2018-12-30T13:29:28.786Z,17.23
2018-12-30T13:31:57.826Z,15.20
2018-12-30T13:34:34.775Z,14.63
2018-12-30T13:37:03.443Z,14.10
2018-12-30T13:39:32.267Z,14.63
2018-12-30T13:42:01.360Z,14.17
2018-12-30T13:44:30.551Z,14.40
2018-12-30T13:46:59.389Z,14.27
2018-12-30T13:49:28.175Z,14.90
2018-12-30T13:51:57.057Z,14.50
2018-12-30T13:54:26.120Z,14.57
2018-12-30T13:56:55.620Z,15.30
2018-12-30T13:59:24.520Z,15.13
2018-12-30T14:01:53.488Z,15.03
2018-12-30T14:04:22.399Z,15.10
2018-12-30T14:06:51.418Z,14.93
2018-12-30T14:09:20.235Z,16.30
2018-12-30T14:11:49.059Z,15.20
2018-12-30T14:14:17.890Z,15.30
2018-12-30T14:16:48.609Z,15.17
2018-12-30T14:19:17.571Z,15.40
2018-12-30T14:21:46.584Z,14.80
2018-12-30T14:24:15.381Z,15.50
2018-12-30T14:26:44.758Z,14.60
2018-12-30T14:29:13.654Z,16.30
2018-12-30T14:31:42.985Z,14.93
2018-12-30T14:34:11.785Z,14.20
2018-12-30T14:36:40.711Z,13.80
2018-12-30T14:39:10.118Z,15.53
2018-12-30T14:41:39.047Z,14.30
2018-12-30T14:44:07.843Z,14.43
2018-12-30T14:46:36.712Z,13.90
2018-12-30T14:49:05.795Z,14.10
2018-12-30T14:51:35.909Z,15.27
2018-12-30T14:54:04.787Z,13.93
2018-12-30T14:56:33.781Z,13.77
2018-12-30T14:59:02.892Z,14.20
2018-12-30T15:01:32.264Z,15.57
2018-12-30T15:04:01.010Z,14.30
2018-12-30T15:06:29.864Z,14.70
2018-12-30T15:08:58.736Z,14.10
2018-12-30T15:11:28.001Z,14.87
2018-12-30T15:13:56.949Z,15.60
2018-12-30T15:16:25.831Z,14.60
2018-12-30T15:18:54.973Z,14.30
2018-12-30T15:21:29.861Z,14.80
2018-12-30T15:23:58.746Z,14.10
2018-12-30T15:26:28.100Z,14.63
2018-12-30T15:28:57.092Z,15.47
2018-12-30T15:31:26.484Z,15.20
2018-12-30T15:33:55.387Z,15.50
2018-12-30T15:36:24.311Z,15.23
2018-12-30T15:38:53.560Z,14.23
2018-12-30T15:41:22.927Z,14.00
2018-12-30T15:43:51.896Z,15.10
2018-12-30T15:46:20.816Z,14.43
2018-12-30T15:48:49.711Z,14.80
2018-12-30T15:51:18.721Z,14.87
2018-12-30T15:53:48.095Z,15.37
2018-12-30T15:56:17.440Z,16.63
2018-12-30T15:58:46.971Z,16.70
2018-12-30T16:01:15.960Z,15.17
2018-12-30T16:03:44.931Z,14.30
2018-12-30T16:06:13.963Z,15.43
2018-12-30T16:08:43.336Z,15.13
2018-12-30T16:11:12.239Z,14.07
2018-12-30T16:13:41.125Z,14.30
2018-12-30T16:16:09.979Z,15.20
2018-12-30T16:18:38.825Z,14.93
2018-12-30T16:21:07.746Z,14.30
2018-12-30T16:23:36.677Z,15.00
2018-12-30T16:26:05.758Z,14.43
2018-12-30T16:28:34.728Z,14.60
2018-12-30T16:31:03.884Z,14.60
2018-12-30T16:33:32.820Z,14.40
2018-12-30T16:36:02.345Z,14.70
2018-12-30T16:38:31.324Z,15.30
2018-12-30T16:41:00.113Z,14.70
2018-12-30T16:43:29.448Z,15.87
2018-12-30T16:45:58.580Z,15.30
2018-12-30T16:48:27.904Z,15.70
2018-12-30T16:50:57.010Z,14.50
2018-12-30T16:53:26.059Z,14.97
2018-12-30T16:55:55.077Z,14.57
2018-12-30T16:58:24.122Z,15.23
2018-12-30T17:00:53.113Z,15.70
2018-12-30T17:03:22.283Z,14.60
2018-12-30T17:05:51.626Z,14.80
2018-12-30T17:08:20.620Z,14.80
2018-12-30T17:10:49.577Z,15.10
2018-12-30T17:13:18.552Z,15.10
2018-12-30T17:15:47.580Z,15.17
2018-12-30T17:18:16.723Z,14.93
2018-12-30T17:20:45.755Z,21.03
2018-12-30T17:23:14.705Z,19.53
2018-12-30T17:25:43.639Z,15.83
2018-12-30T17:28:12.793Z,15.00
2018-12-30T17:30:42.145Z,16.23
2018-12-30T17:33:10.995Z,15.00
2018-12-30T17:35:39.868Z,15.40
2018-12-30T17:38:08.731Z,14.97
2018-12-30T17:40:38.597Z,15.20
2018-12-30T17:43:08.008Z,14.40
2018-12-30T17:45:36.899Z,14.47
2018-12-30T17:48:06.219Z,14.60
2018-12-30T17:50:38.461Z,15.40
2018-12-30T17:53:09.929Z,15.27
2018-12-30T17:55:41.138Z,15.73
2018-12-30T17:58:13.794Z,15.73
2018-12-30T18:00:42.764Z,14.90
2018-12-30T18:03:11.882Z,14.83
2018-12-30T18:05:40.772Z,14.70
2018-12-30T18:08:10.072Z,14.87
2018-12-30T18:10:39.016Z,14.97
2018-12-30T18:13:07.951Z,14.70
2018-12-30T18:15:37.203Z,13.40
2018-12-30T18:18:06.712Z,14.20
2018-12-30T18:20:35.779Z,14.80
2018-12-30T18:23:04.859Z,16.07
2018-12-30T18:25:37.875Z,13.30
2018-12-30T18:28:07.307Z,14.47
2018-12-30T18:30:36.892Z,14.53
2018-12-30T18:33:06.452Z,14.53
2018-12-30T18:35:35.379Z,15.00
2018-12-30T18:38:05.199Z,14.10
2018-12-30T18:40:38.357Z,14.90
2018-12-30T18:43:07.314Z,16.47
2018-12-30T18:45:36.551Z,16.80
2018-12-30T18:48:06.547Z,15.00
2018-12-30T18:50:36.638Z,14.77
2018-12-30T18:53:05.740Z,15.23
2018-12-30T18:55:34.825Z,13.70
2018-12-30T18:58:08.456Z,15.07
2018-12-30T19:00:37.435Z,15.27
2018-12-30T19:03:08.886Z,15.20
2018-12-30T19:05:38.187Z,15.10
2018-12-30T19:08:07.137Z,16.43
2018-12-30T19:10:36.506Z,14.80
2018-12-30T19:13:05.863Z,15.00
2018-12-30T19:15:34.747Z,14.43
2018-12-30T19:18:03.873Z,16.10
2018-12-30T19:20:32.928Z,16.30
2018-12-30T19:23:02.008Z,15.10
2018-12-30T19:25:31.407Z,15.30
2018-12-30T19:28:00.316Z,15.77
2018-12-30T19:30:29.373Z,14.87
2018-12-30T19:32:58.249Z,15.17
2018-12-30T19:35:27.149Z,14.50
2018-12-30T19:37:58.119Z,15.90
2018-12-30T19:40:28.585Z,14.57
2018-12-30T19:42:57.908Z,14.30
2018-12-30T19:45:26.727Z,16.03
2018-12-30T19:47:55.550Z,15.87
2018-12-30T19:50:24.945Z,15.27
2018-12-30T19:52:54.151Z,14.80
2018-12-30T19:55:23.073Z,14.33
2018-12-30T19:57:52.491Z,13.50
2018-12-30T20:00:21.358Z,13.97
2018-12-30T20:02:52.490Z,14.07
2018-12-30T20:05:20.967Z,14.60
2018-12-30T20:07:50.836Z,13.90
2018-12-30T20:10:19.915Z,14.07
2018-12-30T20:12:48.915Z,13.60
2018-12-30T20:15:17.835Z,14.10
2018-12-30T20:17:46.982Z,14.03
2018-12-30T20:20:16.236Z,20.97
2018-12-30T20:22:46.584Z,14.60
2018-12-30T20:25:15.599Z,14.53
2018-12-30T20:27:44.787Z,14.07
2018-12-30T20:30:13.686Z,13.93
2018-12-30T20:32:42.782Z,15.50
2018-12-30T20:35:12.096Z,13.63
2018-12-30T20:37:41.420Z,13.83
2018-12-30T20:40:10.602Z,14.03
2018-12-30T20:42:39.805Z,15.00
2018-12-30T20:45:09.047Z,14.53
2018-12-30T20:47:38.243Z,13.67
2018-12-30T20:50:07.772Z,14.67
2018-12-30T20:52:36.684Z,15.47
2018-12-30T20:55:05.729Z,15.00
2018-12-30T20:57:35.301Z,16.50
2018-12-30T21:00:04.611Z,15.00
2018-12-30T21:02:33.544Z,15.10
2018-12-30T21:05:02.563Z,14.40
2018-12-30T21:07:31.399Z,15.77
2018-12-30T21:10:00.482Z,15.67
2018-12-30T21:12:29.236Z,15.27
2018-12-30T21:14:58.540Z,15.10
2018-12-30T21:17:31.959Z,14.77
2018-12-30T21:20:01.027Z,14.67
2018-12-30T21:22:29.991Z,14.00
2018-12-30T21:24:58.890Z,13.70
2018-12-30T21:27:27.736Z,14.30
2018-12-30T21:29:56.608Z,14.17
2018-12-30T21:32:25.599Z,13.90
2018-12-30T21:34:54.491Z,13.83
2018-12-30T21:37:24.086Z,14.27
2018-12-30T21:39:53.062Z,13.20
2018-12-30T21:42:22.861Z,13.50
2018-12-30T21:44:52.014Z,14.03
2018-12-30T21:47:21.018Z,14.50
2018-12-30T21:49:49.845Z,13.20
2018-12-30T21:52:18.870Z,13.27
2018-12-30T21:54:47.974Z,13.47
2018-12-30T21:57:16.825Z,13.47
2018-12-30T21:59:45.618Z,13.23
2018-12-30T22:02:14.887Z,14.10
2018-12-30T22:04:43.923Z,13.20
2018-12-30T22:07:12.782Z,12.40
2018-12-30T22:09:41.765Z,13.53
2018-12-30T22:12:11.001Z,14.10
2018-12-30T22:14:39.928Z,13.43
2018-12-30T22:17:08.729Z,15.20
2018-12-30T22:19:38.123Z,13.57
2018-12-30T22:22:07.198Z,14.00
2018-12-30T22:24:36.098Z,13.67
2018-12-30T22:27:04.979Z,14.33
2018-12-30T22:29:33.754Z,13.20
2018-12-30T22:32:02.667Z,13.60
2018-12-30T22:34:32.061Z,14.30
2018-12-30T22:37:00.871Z,13.50
2018-12-30T22:39:29.763Z,12.77
2018-12-30T22:41:59.424Z,13.90
2018-12-30T22:44:28.426Z,13.50
2018-12-30T22:46:57.254Z,12.70
2018-12-30T22:49:26.487Z,12.70
2018-12-30T22:51:55.392Z,15.50
2018-12-30T22:54:36.131Z,13.63
2018-12-30T22:57:06.062Z,13.13
2018-12-30T22:59:35.733Z,14.03
2018-12-30T23:02:04.592Z,13.50
2018-12-30T23:04:33.822Z,13.90
2018-12-30T23:07:03.027Z,13.60
2018-12-30T23:09:32.084Z,13.07
2018-12-30T23:12:01.736Z,12.30
2018-12-30T23:14:30.727Z,12.60
2018-12-30T23:16:59.508Z,12.90
2018-12-30T23:19:28.424Z,12.00
2018-12-30T23:21:57.557Z,11.43
2018-12-30T23:24:26.420Z,13.17
2018-12-30T23:26:55.189Z,12.50
2018-12-30T23:29:24.378Z,11.57
2018-12-30T23:31:53.645Z,12.50
2018-12-30T23:34:22.463Z,13.53
2018-12-30T23:36:51.339Z,11.97
2018-12-30T23:39:20.959Z,13.40
2018-12-30T23:41:50.325Z,11.97
2018-12-30T23:44:19.179Z,12.87
2018-12-30T23:46:48.018Z,15.50
2018-12-30T23:49:17.728Z,12.70
2018-12-30T23:51:46.988Z,12.63
2018-12-30T23:54:16.043Z,12.03
2018-12-30T23:56:44.798Z,14.43
2018-12-30T23:59:13.614Z,12.47
